LFRB/BES METAR and TAF weather

Enter ICAO airport designator
Station Type Date Time Source
LFRB METAR 2019/02/21 00:00 UTC NOAA

LFRB 210000Z AUTO 18009KT 9999 SCT005 OVC090 09/08 Q1023 TEMPO 4000 BR OVC006


Station Type Date Time Source
LFRB Decoded METAR 2019/02/21 00:00 UTC NOAA

Brest, France (LFRB) 48-27N 004-25W 103M
Feb 20, 2019 - 07:00 PM EST / 2019.02.21 0000 UTC
Wind: from the S (180 degrees) at 10 MPH (9 KT):0
Visibility: greater than 7 mile(s):0
Sky conditions: overcast
Temperature: 48 F (9 C)
Dew Point: 46 F (8 C)
Relative Humidity: 93%
Pressure (altimeter): 30.21 in. Hg (1023 hPa)
ob: LFRB 210000Z AUTO 18009KT 9999 SCT005 OVC090 09/08 Q1023 TEMPO 4000 BR OVC006
cycle: 0

Station Type Date Time Source
LFRB TAF 2019/02/20 21:29 UTC NOAA

TAF
AMD LFRB 202120Z 2021/2124 19010KT 9999 BKN012 PROB30
TEMPO 2021/2108 3000 BR OVC006
BECMG 2109/2112 SCT020


Example: see airport list